Armony — 5IM517 — position and weather

sailwx.info

Track history (hours):
 
Tides and Currents Weather Stations Pressure Air Temp Water Temp Dewpoint Dewpoint Depression Visibility Wind Speed Wind Dir Waves Ship Positions

Armony

Last reported at 2014-Nov-01 07:31 UTC. Time now 2014-Nov-01 14:11 UTC.
Position N 40°58' E 028°59'.

Length 70 m; draft 3.5 m.

Type: Ship. MMSI: 677041700.

Date/timePositionNaut miles runAvg speedWind from/ knotsBaromVisibWave heightAir tempDewpointWater temp
2014-Nov-01 07:31N 40°58' E 028°59'3 1.2
2014-Nov-01 05:27N 40°58' E 028°56'0 0.0
2014-Nov-01 02:03N 40°58' E 028°56'0 0.0
2014-Nov-01 01:33N 40°58' E 028°56'0 0.0
2014-Nov-01 00:33N 40°58' E 028°56'0 0.0
2014-Oct-31 23:27N 40°58' E 028°56'0 0.0
2014-Oct-31 22:15N 40°58' E 028°56'0 0.0
2014-Oct-31 20:27N 40°58' E 028°56'0 0.0
2014-Oct-31 19:03N 40°58' E 028°56'0 0.0
2014-Oct-31 18:15N 40°58' E 028°56'0 0.0
2014-Oct-31 15:33N 40°58' E 028°56'0 0.0
2014-Oct-31 06:15N 40°58' E 028°56'0 0.0
2014-Oct-31 00:32N 40°58' E 028°56'5 5.5
2014-Oct-30 23:32N 40°53' E 029°00'7 7.2
2014-Oct-30 22:31N 40°48' E 029°06'7 7.6
2014-Oct-30 21:33N 40°46' E 029°16'8 7.7
2014-Oct-30 20:34N 40°45' E 029°26'10 7.2
2014-Oct-30 19:09N 40°45' E 029°39'  
2014-Oct-25 08:09N 40°45' E 029°31'4 7.0
2014-Oct-25 07:32N 40°44' E 029°25'5 5.1
2014-Oct-25 06:33N 40°44' E 029°19'7 7.0
2014-Oct-25 05:33N 40°46' E 029°10'7 7.1
2014-Oct-25 04:33N 40°48' E 029°01'6 6.3
2014-Oct-25 03:33N 40°54' E 028°57'  
Track history (hours):
 
Tides and Currents Weather Stations Pressure Air Temp Water Temp Dewpoint Dewpoint Depression Visibility Wind Speed Wind Dir Waves Ship Positions

Armony

Last reported at 2014-Nov-01 07:31 UTC. Time now 2014-Nov-01 14:11 UTC.
Position N 40°58' E 028°59'.

Length 70 m; draft 3.5 m.

Type: Ship. MMSI: 677041700.

Date/timePositionNaut miles runAvg speedWind from/ knotsBaromVisibWave heightAir tempDewpointWater temp
2014-Nov-01 07:31N 40°58' E 028°59'3 1.2
2014-Nov-01 05:27N 40°58' E 028°56'0 0.0
2014-Nov-01 02:03N 40°58' E 028°56'0 0.0
2014-Nov-01 01:33N 40°58' E 028°56'0 0.0
2014-Nov-01 00:33N 40°58' E 028°56'0 0.0
2014-Oct-31 23:27N 40°58' E 028°56'0 0.0
2014-Oct-31 22:15N 40°58' E 028°56'0 0.0
2014-Oct-31 20:27N 40°58' E 028°56'0 0.0
2014-Oct-31 19:03N 40°58' E 028°56'0 0.0
2014-Oct-31 18:15N 40°58' E 028°56'0 0.0
2014-Oct-31 15:33N 40°58' E 028°56'0 0.0
2014-Oct-31 06:15N 40°58' E 028°56'0 0.0
2014-Oct-31 00:32N 40°58' E 028°56'5 5.5
2014-Oct-30 23:32N 40°53' E 029°00'7 7.2
2014-Oct-30 22:31N 40°48' E 029°06'7 7.6
2014-Oct-30 21:33N 40°46' E 029°16'8 7.7
2014-Oct-30 20:34N 40°45' E 029°26'10 7.2
2014-Oct-30 19:09N 40°45' E 029°39'  
2014-Oct-25 08:09N 40°45' E 029°31'4 7.0
2014-Oct-25 07:32N 40°44' E 029°25'5 5.1
2014-Oct-25 06:33N 40°44' E 029°19'7 7.0
2014-Oct-25 05:33N 40°46' E 029°10'7 7.1
2014-Oct-25 04:33N 40°48' E 029°01'6 6.3
2014-Oct-25 03:33N 40°54' E 028°57'  

Dump ship's entire track history